createdAt,value
2022-09-10T00:07:40.061Z,2.67
2022-09-10T00:18:01.549Z,2.80
2022-09-10T00:28:25.534Z,3.20
2022-09-10T00:38:47.523Z,3.50
2022-09-10T00:49:14.621Z,3.90
2022-09-10T00:59:36.322Z,4.00
2022-09-10T01:09:59.965Z,4.20
2022-09-10T01:20:30.483Z,4.32
2022-09-10T01:30:58.049Z,4.67
2022-09-10T01:41:24.087Z,4.80
2022-09-10T01:52:15.177Z,5.43
2022-09-10T02:02:40.819Z,5.50
2022-09-10T02:13:02.273Z,5.60
2022-09-10T02:23:33.182Z,6.22
2022-09-10T02:33:54.711Z,6.27
2022-09-10T02:44:16.578Z,6.95
2022-09-10T02:54:38.297Z,6.93
2022-09-10T03:04:59.770Z,7.47
2022-09-10T03:15:22.862Z,8.32
2022-09-10T03:25:49.078Z,8.40
2022-09-10T03:36:13.300Z,9.15
2022-09-10T03:46:34.764Z,9.88
2022-09-10T04:07:17.558Z,10.90
2022-09-10T04:28:01.870Z,11.13
2022-09-10T04:38:23.373Z,10.88
2022-09-10T04:48:44.850Z,12.35
2022-09-10T04:59:06.558Z,12.70
2022-09-10T05:09:34.100Z,11.50
2022-09-10T05:19:55.831Z,12.50
2022-09-10T05:30:18.714Z,12.68
2022-09-10T05:40:42.733Z,12.57
2022-09-10T05:51:04.182Z,12.63
2022-09-10T06:01:26.145Z,12.65
2022-09-10T06:11:48.519Z,13.45
2022-09-10T06:22:11.147Z,13.02
2022-09-10T06:32:32.628Z,13.35
2022-09-10T06:42:54.684Z,13.60
2022-09-10T06:53:16.729Z,14.18
2022-09-10T07:03:38.231Z,14.20
2022-09-10T07:14:01.371Z,14.65
2022-09-10T07:24:22.874Z,15.50
2022-09-10T07:34:44.353Z,15.85
2022-09-10T07:45:07.171Z,15.98
2022-09-10T07:55:30.492Z,17.88
2022-09-10T08:05:52.066Z,17.63
2022-09-10T08:16:17.861Z,19.08
2022-09-10T08:26:40.115Z,19.25
2022-09-10T08:37:03.272Z,16.92
2022-09-10T08:47:28.080Z,16.27
2022-09-10T08:57:55.523Z,14.85
2022-09-10T09:08:21.834Z,14.43
2022-09-10T09:19:54.367Z,12.50
2022-09-10T09:30:20.141Z,11.82
2022-09-10T09:40:56.275Z,9.65
2022-09-10T09:51:21.650Z,9.57
2022-09-10T10:01:44.492Z,9.00
2022-09-10T10:12:07.171Z,9.10
2022-09-10T10:22:32.614Z,9.45
2022-09-10T10:33:00.000Z,7.15
2022-09-10T10:43:42.300Z,7.28
2022-09-10T10:54:33.815Z,9.10
2022-09-10T11:05:01.197Z,9.05
2022-09-10T11:15:48.986Z,10.38
2022-09-10T11:26:22.745Z,8.45
2022-09-10T11:36:54.801Z,10.48
2022-09-10T11:47:32.331Z,9.23
2022-09-10T11:58:11.567Z,8.30
2022-09-10T12:08:55.925Z,10.63
2022-09-10T12:19:30.649Z,9.38
2022-09-10T12:29:52.098Z,9.38
2022-09-10T12:40:44.637Z,8.52
2022-09-10T12:51:21.611Z,9.27
2022-09-10T13:01:48.887Z,8.70
2022-09-10T13:12:21.095Z,9.27
2022-09-10T13:23:04.481Z,11.77
2022-09-10T13:33:33.398Z,9.93
2022-09-10T13:44:20.388Z,9.32
2022-09-10T13:54:51.383Z,11.50
2022-09-10T14:05:23.107Z,10.82
2022-09-10T14:15:44.832Z,10.52
2022-09-10T14:26:23.493Z,11.13
2022-09-10T14:36:45.104Z,10.38
2022-09-10T14:47:10.121Z,8.93
2022-09-10T14:57:31.684Z,11.32
2022-09-10T15:07:53.198Z,11.68
2022-09-10T15:18:14.970Z,11.60
2022-09-10T15:28:36.502Z,12.13
2022-09-10T15:38:59.607Z,12.80
2022-09-10T15:49:21.078Z,12.88
2022-09-10T15:59:42.600Z,13.85
2022-09-10T16:10:06.199Z,13.23
2022-09-10T16:20:27.714Z,11.95
2022-09-10T16:30:49.682Z,11.65
2022-09-10T16:41:13.569Z,11.65
2022-09-10T16:51:36.128Z,11.43
2022-09-10T17:01:59.523Z,10.32
2022-09-10T17:12:21.105Z,9.00
2022-09-10T17:22:42.810Z,6.05
2022-09-10T17:33:06.008Z,5.05
2022-09-10T17:43:29.922Z,4.15
2022-09-10T17:53:53.664Z,3.80
2022-09-10T18:04:15.706Z,4.28
2022-09-10T18:14:38.439Z,5.40
2022-09-10T18:24:59.909Z,5.57
2022-09-10T18:35:21.461Z,6.05
2022-09-10T18:45:42.974Z,8.00
2022-09-10T18:56:10.074Z,8.38
2022-09-10T19:06:35.285Z,9.43
2022-09-10T19:16:58.186Z,11.68
2022-09-10T19:27:19.660Z,12.88
2022-09-10T19:37:41.206Z,14.80
2022-09-10T19:48:03.256Z,15.57
2022-09-10T19:58:24.731Z,16.73
2022-09-10T20:08:50.252Z,16.52
2022-09-10T20:19:21.948Z,17.70
2022-09-10T20:29:43.916Z,18.23
2022-09-10T20:40:05.910Z,18.33
2022-09-10T20:50:27.496Z,19.83
2022-09-10T21:00:48.951Z,20.00
2022-09-10T21:11:19.349Z,19.88
2022-09-10T21:21:42.070Z,20.17
2022-09-10T21:32:03.576Z,21.52
2022-09-10T21:42:25.094Z,22.10
2022-09-10T21:52:46.571Z,21.73
2022-09-10T22:03:08.092Z,23.70
2022-09-10T22:13:29.932Z,22.55
2022-09-10T22:23:51.791Z,23.27
2022-09-10T22:34:15.443Z,23.92
2022-09-10T22:44:36.904Z,23.92
2022-09-10T22:54:58.363Z,23.92
2022-09-10T23:05:20.047Z,24.67
2022-09-10T23:15:41.695Z,24.27
2022-09-10T23:26:05.704Z,24.83
2022-09-10T23:36:29.932Z,24.38
2022-09-10T23:46:51.963Z,25.98
2022-09-10T23:57:13.424Z,25.48
